createdAt,value
2017-11-08T00:01:06.063Z,28.17
2017-11-08T00:03:32.271Z,35.73
2017-11-08T00:05:58.549Z,31.60
2017-11-08T00:08:24.890Z,27.20
2017-11-08T00:10:51.150Z,30.83
2017-11-08T00:13:17.325Z,30.30
2017-11-08T00:15:44.872Z,35.57
2017-11-08T00:18:12.043Z,26.93
2017-11-08T00:20:39.157Z,27.70
2017-11-08T00:23:08.154Z,32.73
2017-11-08T00:25:34.419Z,28.77
2017-11-08T00:37:40.669Z,27.47
2017-11-08T00:40:06.938Z,32.80
2017-11-08T00:42:33.149Z,30.40
2017-11-08T00:44:59.350Z,29.27
2017-11-08T00:47:27.167Z,31.40
2017-11-08T00:49:53.406Z,27.27
2017-11-08T00:52:19.858Z,29.30
2017-11-08T00:54:46.111Z,29.60
2017-11-08T00:57:16.211Z,29.57
2017-11-08T00:59:42.349Z,28.80
2017-11-08T01:02:08.548Z,27.20
2017-11-08T01:04:35.541Z,33.30
2017-11-08T01:07:02.811Z,31.87
2017-11-08T01:09:29.046Z,27.47
2017-11-08T01:11:55.211Z,32.90
2017-11-08T01:14:21.403Z,27.53
2017-11-08T01:16:47.689Z,30.83
2017-11-08T01:19:13.947Z,28.30
2017-11-08T01:21:40.113Z,34.10
2017-11-08T01:24:06.283Z,29.17
2017-11-08T01:26:32.501Z,31.30
2017-11-08T01:28:59.043Z,36.73
2017-11-08T01:31:25.235Z,29.33
2017-11-08T01:33:51.814Z,33.97
2017-11-08T01:36:20.880Z,31.57
2017-11-08T01:38:47.127Z,31.10
2017-11-08T01:41:20.223Z,32.00
2017-11-08T01:43:47.931Z,31.03
2017-11-08T01:46:16.095Z,32.47
2017-11-08T01:48:42.283Z,29.17
2017-11-08T01:51:13.372Z,30.63
2017-11-08T01:53:39.578Z,31.50
2017-11-08T01:56:05.789Z,30.23
2017-11-08T01:58:32.356Z,36.77
2017-11-08T02:00:58.532Z,37.07
2017-11-08T02:03:25.149Z,35.53
2017-11-08T02:05:51.453Z,35.97
2017-11-08T02:08:18.563Z,32.90
2017-11-08T02:10:44.802Z,35.33
2017-11-08T02:13:11.008Z,37.20
2017-11-08T02:15:37.931Z,35.97
2017-11-08T02:18:06.031Z,34.80
2017-11-08T02:20:32.248Z,34.27
2017-11-08T02:22:58.457Z,37.10
2017-11-08T02:25:24.673Z,35.50
2017-11-08T02:27:50.942Z,36.03
2017-11-08T02:30:17.194Z,31.67
2017-11-08T02:32:43.404Z,33.63
2017-11-08T02:35:09.635Z,34.60
2017-11-08T02:37:36.606Z,37.20
2017-11-08T02:40:03.584Z,36.93
2017-11-08T02:42:29.754Z,33.07
2017-11-08T02:44:56.315Z,33.83
2017-11-08T02:47:22.536Z,38.30
2017-11-08T02:49:48.727Z,33.27
2017-11-08T02:52:15.646Z,34.57
2017-11-08T02:54:41.843Z,39.73
2017-11-08T02:57:08.041Z,38.13
2017-11-08T02:59:34.995Z,39.23
2017-11-08T03:02:01.190Z,38.77
2017-11-08T03:04:27.612Z,35.43
2017-11-08T03:06:53.804Z,38.10
2017-11-08T03:09:19.982Z,37.83
2017-11-08T03:11:46.179Z,40.37
2017-11-08T03:14:12.348Z,37.27
2017-11-08T03:16:39.271Z,34.83
2017-11-08T03:19:06.068Z,36.00
2017-11-08T03:21:32.612Z,34.90
2017-11-08T03:23:58.790Z,36.03
2017-11-08T03:26:26.526Z,36.53
2017-11-08T03:28:52.717Z,37.80
2017-11-08T03:31:18.895Z,35.73
2017-11-08T03:33:45.095Z,42.20
2017-11-08T03:36:11.286Z,36.00
2017-11-08T03:38:37.529Z,34.73
2017-11-08T03:41:03.790Z,41.00
2017-11-08T03:43:30.030Z,41.67
2017-11-08T03:45:56.251Z,39.67
2017-11-08T03:48:22.471Z,42.20
2017-11-08T03:50:48.674Z,36.67
2017-11-08T03:53:15.254Z,34.47
2017-11-08T03:55:42.162Z,34.47
2017-11-08T03:58:09.302Z,36.10
2017-11-08T04:00:35.532Z,36.30
2017-11-08T04:03:01.750Z,35.20
2017-11-08T04:05:27.930Z,31.83
2017-11-08T04:07:54.597Z,38.47
2017-11-08T04:10:21.211Z,42.50
2017-11-08T04:12:47.471Z,34.87
2017-11-08T04:15:14.582Z,33.47
2017-11-08T04:17:40.869Z,37.40
2017-11-08T04:20:07.570Z,33.63
2017-11-08T04:22:33.747Z,39.27
2017-11-08T04:24:59.941Z,36.90
2017-11-08T04:27:26.161Z,39.37
2017-11-08T04:29:52.808Z,33.97
2017-11-08T04:32:20.156Z,38.07
2017-11-08T04:34:47.168Z,37.13
2017-11-08T04:37:13.363Z,39.50
2017-11-08T04:39:39.682Z,37.17
2017-11-08T04:42:05.898Z,35.73
2017-11-08T04:44:33.672Z,34.60
2017-11-08T04:46:59.967Z,39.33
2017-11-08T04:49:26.227Z,37.20
2017-11-08T04:51:52.485Z,38.70
2017-11-08T04:54:18.641Z,37.37
2017-11-08T04:56:44.859Z,35.90
2017-11-08T04:59:11.032Z,35.97
2017-11-08T05:01:37.271Z,36.83
2017-11-08T05:04:03.440Z,38.93
2017-11-08T05:06:30.389Z,39.03
2017-11-08T05:08:56.614Z,39.97
2017-11-08T05:11:23.050Z,37.37
2017-11-08T05:13:49.620Z,39.07
2017-11-08T05:16:15.838Z,39.03
2017-11-08T05:18:42.076Z,37.23
2017-11-08T05:21:08.288Z,40.60
2017-11-08T05:23:34.495Z,38.10
2017-11-08T05:26:00.743Z,37.37
2017-11-08T05:28:27.761Z,36.03
2017-11-08T05:30:54.151Z,37.20
2017-11-08T05:33:20.741Z,36.80
2017-11-08T05:35:46.955Z,44.73
2017-11-08T05:38:13.864Z,45.07
2017-11-08T05:40:40.066Z,44.20
2017-11-08T05:43:07.081Z,42.47
2017-11-08T05:45:33.662Z,43.53
2017-11-08T05:48:02.073Z,41.37
2017-11-08T05:50:28.253Z,41.03
2017-11-08T05:52:55.417Z,37.67
2017-11-08T05:55:21.625Z,43.23
2017-11-08T05:57:47.843Z,40.23
2017-11-08T06:00:14.057Z,39.83
2017-11-08T06:02:40.283Z,40.23
2017-11-08T06:05:08.152Z,34.80
2017-11-08T06:07:34.352Z,33.93
2017-11-08T06:10:02.094Z,34.30
2017-11-08T06:12:28.307Z,39.53
2017-11-08T06:14:54.863Z,36.00
2017-11-08T06:17:21.050Z,40.20
2017-11-08T06:19:47.267Z,37.73
2017-11-08T06:22:13.455Z,36.47
2017-11-08T06:24:39.768Z,38.40
2017-11-08T06:27:06.467Z,34.87
2017-11-08T06:29:32.772Z,32.70
2017-11-08T06:31:59.562Z,35.97
2017-11-08T06:34:25.827Z,33.77
2017-11-08T06:36:52.054Z,36.30
2017-11-08T06:39:18.594Z,38.63
2017-11-08T06:41:46.373Z,36.33
2017-11-08T06:44:12.566Z,39.13
2017-11-08T06:46:38.752Z,36.57
2017-11-08T06:49:04.971Z,36.83
2017-11-08T06:51:31.401Z,43.90
2017-11-08T06:53:57.591Z,40.10
2017-11-08T06:56:23.784Z,32.50
2017-11-08T06:58:50.020Z,30.50
2017-11-08T07:01:16.228Z,36.07
2017-11-08T07:03:43.282Z,33.57
2017-11-08T07:06:12.270Z,40.77
2017-11-08T07:08:38.429Z,36.07
2017-11-08T07:11:06.314Z,38.97
2017-11-08T07:13:33.517Z,36.40
2017-11-08T07:15:59.693Z,37.53
2017-11-08T07:18:25.900Z,36.27
2017-11-08T07:20:52.672Z,43.30
2017-11-08T07:23:19.613Z,35.03
2017-11-08T07:25:45.815Z,36.73
2017-11-08T07:28:13.592Z,35.83
2017-11-08T07:30:40.794Z,35.87
2017-11-08T07:33:07.006Z,32.00
2017-11-08T07:45:13.280Z,34.87
2017-11-08T07:47:39.484Z,37.63
2017-11-08T07:50:05.630Z,41.90
2017-11-08T08:02:11.895Z,44.97
2017-11-08T08:14:18.140Z,38.33
2017-11-08T08:16:44.323Z,40.40
2017-11-08T08:19:11.372Z,34.93
2017-11-08T08:21:37.585Z,41.00
2017-11-08T08:24:03.789Z,38.30
2017-11-08T08:26:30.057Z,34.60
2017-11-08T08:38:36.722Z,31.67
2017-11-08T08:41:03.359Z,37.80
2017-11-08T08:43:30.312Z,35.10
2017-11-08T08:45:57.619Z,33.63
2017-11-08T08:48:24.176Z,29.40
2017-11-08T08:50:51.100Z,33.27
2017-11-08T08:53:17.313Z,32.47
2017-11-08T08:55:43.595Z,31.63
2017-11-08T08:58:10.139Z,27.47
2017-11-08T09:00:37.112Z,38.77
2017-11-08T09:03:03.371Z,34.57
2017-11-08T09:05:29.608Z,32.87
2017-11-08T09:07:55.818Z,33.33
2017-11-08T09:10:22.032Z,36.03
2017-11-08T09:12:48.234Z,34.93
2017-11-08T09:15:14.469Z,31.13
2017-11-08T09:17:40.647Z,32.30
2017-11-08T09:20:06.915Z,36.73
2017-11-08T09:22:33.156Z,35.17
2017-11-08T09:24:59.321Z,35.00
2017-11-08T09:27:27.652Z,39.87
2017-11-08T09:29:54.833Z,36.70
2017-11-08T09:32:22.883Z,39.00
2017-11-08T09:34:49.168Z,38.40
2017-11-08T09:37:16.599Z,34.20
2017-11-08T09:39:42.826Z,40.90
2017-11-08T09:42:09.059Z,33.80
2017-11-08T09:44:36.122Z,36.47
2017-11-08T09:47:03.275Z,36.37
2017-11-08T09:49:29.961Z,33.83
2017-11-08T09:51:56.137Z,41.10
2017-11-08T09:54:22.322Z,41.20
2017-11-08T09:56:48.533Z,44.43
2017-11-08T09:59:16.550Z,40.00
2017-11-08T10:01:42.745Z,38.80
2017-11-08T10:04:08.986Z,40.13
2017-11-08T10:06:35.436Z,41.20
2017-11-08T10:09:01.989Z,48.17
2017-11-08T10:11:28.201Z,50.27
2017-11-08T10:13:54.307Z,38.77
2017-11-08T10:16:20.579Z,39.53
2017-11-08T10:18:46.818Z,40.50
2017-11-08T10:21:13.050Z,41.80
2017-11-08T10:23:40.167Z,39.27
2017-11-08T10:26:06.880Z,43.10
2017-11-08T10:28:33.519Z,43.13
2017-11-08T10:31:00.104Z,43.20
2017-11-08T10:33:26.319Z,40.43
2017-11-08T10:35:52.566Z,42.57
2017-11-08T10:38:18.722Z,38.20
2017-11-08T10:40:44.993Z,38.43
2017-11-08T10:43:11.202Z,34.77
2017-11-08T10:55:18.127Z,37.60
2017-11-08T10:57:45.048Z,41.10
2017-11-08T11:00:17.208Z,31.23
2017-11-08T11:02:44.326Z,34.30
2017-11-08T11:05:10.651Z,35.43
2017-11-08T11:07:37.030Z,37.93
2017-11-08T11:10:05.808Z,37.50
2017-11-08T11:12:32.071Z,38.50
2017-11-08T11:14:58.321Z,38.17
2017-11-08T11:17:24.555Z,36.80
2017-11-08T11:19:53.789Z,35.70
2017-11-08T11:22:20.048Z,35.27
2017-11-08T11:24:46.297Z,33.57
2017-11-08T11:27:12.602Z,36.67
2017-11-08T11:29:38.820Z,36.30
2017-11-08T11:32:05.722Z,36.13
2017-11-08T11:34:32.312Z,33.97
2017-11-08T11:36:58.920Z,38.80
2017-11-08T11:39:25.107Z,41.20
2017-11-08T11:41:52.096Z,33.40
2017-11-08T11:44:19.031Z,31.47
2017-11-08T11:46:45.671Z,34.53
2017-11-08T11:49:12.559Z,35.63
2017-11-08T11:51:39.159Z,31.83
2017-11-08T11:54:05.406Z,33.63
2017-11-08T11:56:31.976Z,31.33
2017-11-08T11:58:59.490Z,30.47
2017-11-08T12:01:27.498Z,33.17
2017-11-08T12:03:53.715Z,27.67
2017-11-08T12:06:19.964Z,31.73
2017-11-08T12:08:48.807Z,38.53
2017-11-08T12:11:15.088Z,30.43
2017-11-08T12:13:41.320Z,33.23
2017-11-08T12:16:08.344Z,29.57
2017-11-08T12:18:35.278Z,31.90
2017-11-08T12:21:01.494Z,31.93
2017-11-08T12:23:27.681Z,33.80
2017-11-08T12:25:53.933Z,31.17
2017-11-08T12:28:23.617Z,37.93
2017-11-08T12:30:50.187Z,35.27
2017-11-08T12:33:17.935Z,34.00
2017-11-08T12:35:47.264Z,32.77
2017-11-08T12:38:13.493Z,38.23
2017-11-08T12:40:41.146Z,30.10
2017-11-08T12:43:07.398Z,41.00
2017-11-08T12:45:34.538Z,21.97
2017-11-08T12:48:01.625Z,19.10
2017-11-08T12:50:27.828Z,21.27
2017-11-08T12:52:54.079Z,24.27
2017-11-08T12:55:21.106Z,27.10
2017-11-08T12:57:47.300Z,38.73
2017-11-08T13:00:13.585Z,39.20
2017-11-08T13:02:40.575Z,33.63
2017-11-08T13:05:07.492Z,33.20
2017-11-08T13:07:34.723Z,36.20
2017-11-08T13:10:01.014Z,31.73
2017-11-08T13:12:27.251Z,33.17
2017-11-08T13:14:53.932Z,29.40
2017-11-08T13:17:20.904Z,35.67
2017-11-08T13:19:47.193Z,30.57
2017-11-08T13:22:14.171Z,31.83
2017-11-08T13:24:40.508Z,37.10
2017-11-08T13:27:06.915Z,33.03
2017-11-08T13:29:33.234Z,39.27
2017-11-08T13:31:59.544Z,34.40
2017-11-08T13:34:25.760Z,32.70
2017-11-08T13:36:52.768Z,30.27
2017-11-08T13:39:18.966Z,30.33
2017-11-08T13:41:45.177Z,30.87
2017-11-08T13:44:11.447Z,28.27
2017-11-08T13:46:37.692Z,20.20
2017-11-08T13:49:03.990Z,23.60
2017-11-08T13:51:30.573Z,36.33
2017-11-08T13:53:56.850Z,32.27
2017-11-08T13:56:23.058Z,24.73
2017-11-08T13:58:49.317Z,24.17
2017-11-08T14:01:15.579Z,28.33
2017-11-08T14:03:41.810Z,33.73
2017-11-08T14:06:08.044Z,37.00
2017-11-08T14:08:34.629Z,36.47
2017-11-08T14:11:01.971Z,42.50
2017-11-08T14:13:28.168Z,41.97
2017-11-08T14:15:54.386Z,41.27
2017-11-08T14:18:21.215Z,34.23
2017-11-08T14:20:48.432Z,38.17
2017-11-08T14:23:14.956Z,41.70
2017-11-08T14:25:41.135Z,42.17
2017-11-08T14:28:07.411Z,43.40
2017-11-08T14:30:33.799Z,32.27
2017-11-08T14:33:00.030Z,36.67
2017-11-08T14:35:27.780Z,35.00
2017-11-08T14:37:54.615Z,37.27
2017-11-08T14:40:20.830Z,40.07
2017-11-08T14:42:50.658Z,36.57
2017-11-08T14:45:16.855Z,41.07
2017-11-08T14:47:43.047Z,40.30
2017-11-08T14:50:09.249Z,40.73
2017-11-08T14:52:35.835Z,44.50
2017-11-08T14:55:06.380Z,41.73
2017-11-08T14:57:32.688Z,42.50
2017-11-08T14:59:59.753Z,40.43
2017-11-08T15:02:26.410Z,31.53
2017-11-08T15:04:52.599Z,39.50
2017-11-08T15:07:18.821Z,40.47
2017-11-08T15:09:45.052Z,46.80
2017-11-08T15:12:11.244Z,44.33
2017-11-08T15:14:41.250Z,41.83
2017-11-08T15:17:07.514Z,43.80
2017-11-08T15:19:33.746Z,45.47
2017-11-08T15:22:00.803Z,44.93
2017-11-08T15:24:28.971Z,44.07
2017-11-08T15:26:55.201Z,45.70
2017-11-08T15:29:22.436Z,46.70
2017-11-08T15:31:49.552Z,60.23
2017-11-08T15:34:20.591Z,58.63
2017-11-08T15:36:46.894Z,46.73
2017-11-08T15:39:13.879Z,49.37
2017-11-08T15:41:40.092Z,33.83
2017-11-08T15:44:06.672Z,43.80
2017-11-08T15:46:40.406Z,42.40
2017-11-08T15:49:08.645Z,50.43
2017-11-08T15:51:35.701Z,44.70
2017-11-08T15:54:01.977Z,45.67
2017-11-08T15:56:28.904Z,47.17
2017-11-08T15:58:56.079Z,49.33
2017-11-08T16:01:23.273Z,46.63
2017-11-08T16:03:50.397Z,46.77
2017-11-08T16:06:16.741Z,44.07
2017-11-08T16:08:45.412Z,44.70
2017-11-08T16:11:12.475Z,45.37
2017-11-08T16:13:39.073Z,48.43
2017-11-08T16:16:05.246Z,44.37
2017-11-08T16:18:31.653Z,68.57
2017-11-08T16:20:58.303Z,46.27
2017-11-08T16:23:27.540Z,59.03
2017-11-08T16:25:56.475Z,43.90
2017-11-08T16:28:23.629Z,51.93
2017-11-08T16:30:50.048Z,48.33
2017-11-08T16:33:16.270Z,76.90
2017-11-08T16:35:42.492Z,52.37
2017-11-08T16:38:09.369Z,49.53
2017-11-08T16:40:37.929Z,43.20
2017-11-08T16:43:04.122Z,48.13
2017-11-08T16:45:30.424Z,59.07
2017-11-08T16:47:56.668Z,57.97
2017-11-08T16:50:23.646Z,52.73
2017-11-08T16:52:49.884Z,58.50
2017-11-08T16:55:16.169Z,50.47
2017-11-08T16:57:42.495Z,50.50
2017-11-08T17:00:08.879Z,58.50
2017-11-08T17:02:35.565Z,65.67
2017-11-08T17:05:01.874Z,66.47
2017-11-08T17:07:28.091Z,55.43
2017-11-08T17:09:55.445Z,64.10
2017-11-08T17:12:23.087Z,75.97
2017-11-08T17:14:51.149Z,69.27
2017-11-08T17:17:17.382Z,70.63
2017-11-08T17:19:43.627Z,69.70
2017-11-08T17:22:10.765Z,74.17
2017-11-08T17:24:38.597Z,63.60
2017-11-08T17:27:04.811Z,53.50
2017-11-08T17:29:31.040Z,57.87
2017-11-08T17:31:58.046Z,59.63
2017-11-08T17:34:24.347Z,66.10
2017-11-08T17:36:50.621Z,57.00
2017-11-08T17:39:17.875Z,54.97
2017-11-08T17:41:44.953Z,58.90
2017-11-08T17:44:11.206Z,61.50
2017-11-08T17:46:37.959Z,66.33
2017-11-08T17:49:05.836Z,62.10
2017-11-08T17:51:33.088Z,60.63
2017-11-08T17:53:59.406Z,66.53
2017-11-08T17:56:25.650Z,63.47
2017-11-08T18:08:32.083Z,74.33
2017-11-08T18:10:58.440Z,63.70
2017-11-08T18:13:25.647Z,81.50
2017-11-08T18:15:53.002Z,73.80
2017-11-08T18:27:59.271Z,50.37
2017-11-08T18:30:25.495Z,52.60
2017-11-08T18:32:51.686Z,50.00
2017-11-08T18:35:18.777Z,54.70
2017-11-08T18:37:45.774Z,55.97
2017-11-08T18:40:12.818Z,57.40
2017-11-08T18:42:39.278Z,63.80
2017-11-08T18:45:06.343Z,56.80
2017-11-08T18:47:32.570Z,42.13
2017-11-08T18:49:59.582Z,41.60
2017-11-08T18:52:25.804Z,61.97
2017-11-08T18:54:52.026Z,55.20
2017-11-08T18:57:18.365Z,57.43
2017-11-08T18:59:44.832Z,70.70
2017-11-08T19:02:12.911Z,72.17
2017-11-08T19:04:39.383Z,63.97
2017-11-08T19:07:07.030Z,77.90
2017-11-08T19:09:33.263Z,63.83
2017-11-08T19:12:00.237Z,80.10
2017-11-08T19:14:27.502Z,61.53
2017-11-08T19:16:53.786Z,68.50
2017-11-08T19:19:20.142Z,68.03
2017-11-08T19:21:46.764Z,66.63
2017-11-08T19:24:13.020Z,69.50
2017-11-08T19:26:39.409Z,69.17
2017-11-08T19:29:05.760Z,63.00
2017-11-08T19:44:22.283Z,69.23
2017-11-08T19:46:48.869Z,70.30
2017-11-08T19:49:16.233Z,64.23
2017-11-08T19:51:48.899Z,81.40
2017-11-08T19:54:17.398Z,55.53
2017-11-08T19:56:45.738Z,64.63
2017-11-08T19:59:12.155Z,59.67
2017-11-08T20:01:39.917Z,64.17
2017-11-08T20:04:07.936Z,66.50
2017-11-08T20:16:15.101Z,57.77
2017-11-08T20:18:41.359Z,52.33
2017-11-08T20:21:08.353Z,55.50
2017-11-08T20:23:34.580Z,54.53
2017-11-08T20:26:01.089Z,54.23
2017-11-08T20:28:27.308Z,51.33
2017-11-08T20:30:54.924Z,62.13
2017-11-08T20:33:23.688Z,49.37
2017-11-08T20:35:50.047Z,54.27
2017-11-08T20:38:19.053Z,55.27
2017-11-08T20:40:46.234Z,56.87
2017-11-08T20:43:13.397Z,53.57
2017-11-08T20:55:20.591Z,50.90
2017-11-08T20:57:47.052Z,63.70
2017-11-08T21:00:15.824Z,67.43
2017-11-08T21:02:42.550Z,58.20
2017-11-08T21:05:09.962Z,54.93
2017-11-08T21:07:36.967Z,56.33
2017-11-08T21:10:03.243Z,57.27
2017-11-08T21:12:29.475Z,64.53
2017-11-08T21:14:55.689Z,54.80
2017-11-08T21:17:21.893Z,57.67
2017-11-08T21:19:49.118Z,56.43
2017-11-08T21:22:17.050Z,60.93
2017-11-08T21:24:44.130Z,59.93
2017-11-08T21:27:11.256Z,68.07
2017-11-08T21:29:37.630Z,68.10
2017-11-08T21:32:05.481Z,72.03
2017-11-08T21:34:32.188Z,74.20
2017-11-08T21:46:38.667Z,63.43
2017-11-08T21:49:06.177Z,61.97
2017-11-08T21:51:33.609Z,62.80
2017-11-08T21:54:00.376Z,72.93
2017-11-08T21:56:28.364Z,64.63
2017-11-08T21:58:56.736Z,64.47
2017-11-08T22:01:23.724Z,66.27
2017-11-08T22:03:53.162Z,66.10
2017-11-08T22:06:19.542Z,68.73
2017-11-08T22:08:46.907Z,62.30
2017-11-08T22:11:13.500Z,65.97
2017-11-08T22:13:41.143Z,66.73
2017-11-08T22:16:07.449Z,59.97
2017-11-08T22:18:33.648Z,58.83
2017-11-08T22:21:00.795Z,58.47
2017-11-08T22:23:27.579Z,59.93
2017-11-08T22:25:54.856Z,56.90
2017-11-08T22:28:25.193Z,64.40
2017-11-08T22:30:53.493Z,55.20
2017-11-08T22:33:21.008Z,58.10
2017-11-08T22:35:47.323Z,55.03
2017-11-08T22:38:15.312Z,52.80
2017-11-08T22:40:42.943Z,58.83
2017-11-08T22:43:09.171Z,54.20
2017-11-08T22:45:35.420Z,60.30
2017-11-08T22:48:04.629Z,56.17
2017-11-08T22:50:32.814Z,51.10
2017-11-08T22:52:59.619Z,56.33
2017-11-08T22:55:28.437Z,61.43
2017-11-08T22:57:58.549Z,59.23
2017-11-08T23:00:28.474Z,58.43
2017-11-08T23:02:56.771Z,60.67
2017-11-08T23:05:25.902Z,57.80
2017-11-08T23:07:53.976Z,68.10
2017-11-08T23:10:24.114Z,59.87
2017-11-08T23:12:50.776Z,58.37
2017-11-08T23:15:18.137Z,55.70
2017-11-08T23:17:44.774Z,63.20
2017-11-08T23:20:11.075Z,61.70
2017-11-08T23:22:37.941Z,57.73
2017-11-08T23:25:04.948Z,58.73
2017-11-08T23:27:31.964Z,56.30
2017-11-08T23:30:01.477Z,70.03
2017-11-08T23:32:29.012Z,58.43
2017-11-08T23:34:56.151Z,62.40
2017-11-08T23:37:23.986Z,65.30
2017-11-08T23:39:51.752Z,57.20
2017-11-08T23:42:18.937Z,47.70
2017-11-08T23:44:46.354Z,57.00
2017-11-08T23:47:12.773Z,59.30
2017-11-08T23:49:39.703Z,50.47
2017-11-08T23:52:06.695Z,54.87
2017-11-08T23:54:34.063Z,61.53
2017-11-08T23:57:01.617Z,57.60
2017-11-08T23:59:28.721Z,51.30
